createdAt,value
2019-01-19T00:02:22.314Z,25.97
2019-01-19T00:05:37.597Z,22.27
2019-01-19T00:08:46.878Z,25.17
2019-01-19T00:12:02.400Z,20.50
2019-01-19T00:14:39.104Z,23.07
2019-01-19T00:17:39.115Z,26.40
2019-01-19T00:20:52.857Z,25.20
2019-01-19T00:23:57.940Z,20.63
2019-01-19T00:26:54.023Z,21.60
2019-01-19T00:29:57.525Z,26.03
2019-01-19T00:33:03.099Z,20.90
2019-01-19T00:36:12.070Z,21.90
2019-01-19T00:39:14.137Z,20.43
2019-01-19T00:42:35.267Z,23.70
2019-01-19T00:45:40.575Z,20.93
2019-01-19T00:48:38.861Z,22.37
2019-01-19T00:51:48.250Z,20.43
2019-01-19T00:54:39.458Z,20.67
2019-01-19T00:57:49.169Z,19.70
2019-01-19T01:00:28.959Z,17.93
2019-01-19T01:03:39.028Z,21.27
2019-01-19T01:06:50.544Z,21.03
2019-01-19T01:09:56.845Z,21.87
2019-01-19T01:13:04.961Z,21.87
2019-01-19T01:16:19.115Z,22.20
2019-01-19T01:19:25.881Z,18.27
2019-01-19T01:22:34.647Z,19.20
2019-01-19T01:25:50.487Z,21.77
2019-01-19T01:28:50.454Z,22.67
2019-01-19T01:31:55.073Z,20.17
2019-01-19T01:34:52.353Z,22.83
2019-01-19T01:37:35.087Z,18.83
2019-01-19T01:40:31.898Z,20.67
2019-01-19T01:43:18.911Z,23.30
2019-01-19T01:46:36.972Z,22.10
2019-01-19T01:49:38.308Z,25.17
2019-01-19T01:52:50.561Z,22.27
2019-01-19T01:56:01.638Z,20.83
2019-01-19T01:58:57.921Z,20.97
2019-01-19T02:01:56.528Z,22.13
2019-01-19T02:05:02.811Z,25.07
2019-01-19T02:08:01.516Z,26.27
2019-01-19T02:11:27.639Z,25.20
2019-01-19T02:14:21.854Z,20.43
2019-01-19T02:17:48.552Z,19.97
2019-01-19T02:21:16.383Z,20.23
2019-01-19T02:24:17.666Z,18.00
2019-01-19T02:27:33.372Z,19.93
2019-01-19T02:30:58.933Z,18.20
2019-01-19T02:33:50.760Z,16.90
2019-01-19T02:36:53.850Z,19.77
2019-01-19T02:39:51.139Z,18.87
2019-01-19T02:42:32.985Z,20.70
2019-01-19T02:46:00.239Z,16.17
2019-01-19T02:49:07.437Z,19.17
2019-01-19T02:52:10.207Z,17.53
2019-01-19T02:55:09.874Z,18.60
2019-01-19T02:58:12.120Z,21.60
2019-01-19T03:01:18.487Z,20.03
2019-01-19T03:04:18.036Z,20.17
2019-01-19T03:06:58.277Z,20.30
2019-01-19T03:10:20.386Z,20.67
2019-01-19T03:13:40.917Z,18.43
2019-01-19T03:16:45.838Z,18.77
2019-01-19T03:20:01.502Z,19.93
2019-01-19T03:23:00.274Z,18.83
2019-01-19T03:26:05.712Z,19.13
2019-01-19T03:29:14.310Z,18.63
2019-01-19T03:32:47.061Z,20.40
2019-01-19T03:35:54.972Z,24.10
2019-01-19T03:38:42.812Z,18.53
2019-01-19T03:41:47.137Z,19.03
2019-01-19T03:45:01.666Z,21.33
2019-01-19T03:48:20.253Z,20.07
2019-01-19T03:51:19.276Z,20.83
2019-01-19T03:54:40.751Z,19.50
2019-01-19T03:57:45.995Z,21.43
2019-01-19T04:00:47.315Z,18.20
2019-01-19T04:03:52.256Z,20.27
2019-01-19T04:06:47.302Z,19.07
2019-01-19T04:09:53.883Z,19.13
2019-01-19T04:13:01.817Z,20.70
2019-01-19T04:15:49.763Z,19.70
2019-01-19T04:18:39.090Z,20.27
2019-01-19T04:21:41.148Z,18.50
2019-01-19T04:24:22.668Z,18.27
2019-01-19T04:26:55.319Z,18.17
2019-01-19T04:29:24.807Z,18.53
2019-01-19T04:31:54.407Z,22.17
2019-01-19T04:34:25.281Z,16.40
2019-01-19T04:36:55.936Z,19.30
2019-01-19T04:39:25.419Z,18.13
2019-01-19T04:41:55.879Z,19.27
2019-01-19T04:44:27.298Z,19.67
2019-01-19T04:46:58.682Z,19.80
2019-01-19T04:49:33.345Z,17.20
2019-01-19T04:52:02.914Z,15.47
2019-01-19T04:54:33.417Z,15.27
2019-01-19T04:57:02.844Z,17.60
2019-01-19T04:59:37.445Z,17.80
2019-01-19T05:02:13.937Z,16.37
2019-01-19T05:04:45.382Z,14.87
2019-01-19T05:07:14.802Z,17.13
2019-01-19T05:09:45.334Z,15.03
2019-01-19T05:12:17.988Z,13.37
2019-01-19T05:14:51.587Z,15.53
2019-01-19T05:17:27.430Z,13.57
2019-01-19T05:20:05.687Z,16.93
2019-01-19T05:22:35.143Z,13.17
2019-01-19T05:25:06.493Z,16.33
2019-01-19T05:27:36.002Z,15.37
2019-01-19T05:30:07.476Z,13.00
2019-01-19T05:32:37.005Z,13.70
2019-01-19T05:35:09.706Z,14.40
2019-01-19T05:37:46.048Z,21.53
2019-01-19T05:40:15.715Z,16.93
2019-01-19T05:42:57.324Z,20.50
2019-01-19T05:45:32.766Z,17.57
2019-01-19T05:48:02.169Z,14.20
2019-01-19T05:50:41.973Z,17.23
2019-01-19T05:53:11.511Z,18.47
2019-01-19T05:55:46.774Z,23.40
2019-01-19T05:58:16.233Z,19.03
2019-01-19T06:00:53.546Z,16.57
2019-01-19T06:03:29.320Z,16.47
2019-01-19T06:05:59.025Z,14.80
2019-01-19T06:08:28.564Z,18.03
2019-01-19T06:10:58.050Z,17.07
2019-01-19T06:13:27.451Z,14.97
2019-01-19T06:16:02.794Z,16.27
2019-01-19T06:18:34.488Z,16.47
2019-01-19T06:21:05.443Z,17.43
2019-01-19T06:23:34.832Z,18.10
2019-01-19T06:26:05.361Z,12.97
2019-01-19T06:28:38.081Z,15.83
2019-01-19T06:31:07.559Z,14.80
2019-01-19T06:33:37.053Z,18.57
2019-01-19T06:36:06.637Z,21.27
2019-01-19T06:38:38.128Z,19.27
2019-01-19T06:41:07.678Z,20.70
2019-01-19T06:43:43.359Z,16.87
2019-01-19T06:46:14.885Z,18.33
2019-01-19T06:48:46.140Z,17.27
2019-01-19T06:51:15.777Z,15.33
2019-01-19T06:53:45.742Z,15.13
2019-01-19T06:56:18.730Z,18.87
2019-01-19T06:58:50.154Z,21.60
2019-01-19T07:01:26.194Z,16.57
2019-01-19T07:03:55.671Z,22.07
2019-01-19T07:06:25.175Z,24.47
2019-01-19T07:08:54.653Z,18.67
2019-01-19T07:11:24.166Z,21.43
2019-01-19T07:13:53.575Z,19.37
2019-01-19T07:16:23.030Z,19.23
2019-01-19T07:18:54.475Z,17.93
2019-01-19T07:21:25.005Z,21.43
2019-01-19T07:23:54.472Z,16.60
2019-01-19T07:26:23.970Z,22.33
2019-01-19T07:28:53.470Z,18.43
2019-01-19T07:31:22.969Z,17.60
2019-01-19T07:33:53.401Z,22.33
2019-01-19T07:36:25.044Z,17.40
2019-01-19T07:38:54.502Z,17.17
2019-01-19T07:41:34.277Z,20.67
2019-01-19T07:44:06.436Z,18.77
2019-01-19T07:46:37.363Z,19.13
2019-01-19T07:49:07.830Z,19.77
2019-01-19T07:51:41.469Z,20.00
2019-01-19T07:54:12.222Z,19.13
2019-01-19T07:56:42.278Z,22.37
2019-01-19T07:59:11.675Z,20.63
2019-01-19T08:01:41.261Z,18.60
2019-01-19T08:04:18.717Z,18.73
2019-01-19T08:06:49.418Z,15.87
2019-01-19T08:09:18.948Z,21.17
2019-01-19T08:11:49.378Z,19.57
2019-01-19T08:14:21.444Z,17.83
2019-01-19T08:16:52.009Z,15.03
2019-01-19T08:19:23.508Z,16.77
2019-01-19T08:21:53.981Z,18.23
2019-01-19T08:24:25.466Z,14.77
2019-01-19T08:26:55.005Z,18.40
2019-01-19T08:29:24.486Z,13.13
2019-01-19T08:31:54.254Z,14.10
2019-01-19T08:34:23.852Z,14.00
2019-01-19T08:36:57.383Z,13.03
2019-01-19T08:39:28.806Z,14.53
2019-01-19T08:41:58.376Z,15.20
2019-01-19T08:44:29.978Z,14.07
2019-01-19T08:46:59.457Z,13.10
2019-01-19T08:49:30.854Z,11.77
2019-01-19T08:52:01.297Z,11.33
2019-01-19T08:54:36.433Z,13.60
2019-01-19T08:57:06.941Z,11.63
2019-01-19T08:59:36.345Z,10.23
2019-01-19T09:02:05.889Z,10.77
2019-01-19T09:04:43.289Z,12.10
2019-01-19T09:07:14.781Z,11.20
2019-01-19T09:09:44.546Z,10.63
2019-01-19T09:12:16.426Z,13.17
2019-01-19T09:14:47.765Z,11.90
2019-01-19T09:17:19.340Z,12.27
2019-01-19T09:19:52.193Z,13.57
2019-01-19T09:22:24.505Z,11.77
2019-01-19T09:24:56.074Z,12.00
2019-01-19T09:27:28.251Z,11.63
2019-01-19T09:29:59.074Z,10.63
2019-01-19T09:32:30.078Z,10.70
2019-01-19T09:35:06.474Z,11.67
2019-01-19T09:37:40.959Z,10.20
2019-01-19T09:40:12.301Z,12.97
2019-01-19T09:42:43.133Z,11.83
2019-01-19T09:45:17.509Z,13.10
2019-01-19T09:47:48.416Z,13.63
2019-01-19T09:50:41.537Z,9.10
2019-01-19T09:53:12.287Z,11.47
2019-01-19T09:55:43.495Z,10.80
2019-01-19T09:58:16.385Z,8.17
2019-01-19T10:00:48.463Z,10.47
2019-01-19T10:03:17.979Z,9.50
2019-01-19T10:05:47.497Z,11.07
2019-01-19T10:08:16.928Z,11.43
2019-01-19T10:10:47.411Z,10.53
2019-01-19T10:13:23.842Z,9.70
2019-01-19T10:15:54.416Z,9.60
2019-01-19T10:18:30.613Z,10.20
2019-01-19T10:21:11.743Z,10.73
2019-01-19T10:23:53.191Z,10.03
2019-01-19T10:26:23.671Z,11.43
2019-01-19T10:28:53.605Z,11.00
2019-01-19T10:31:25.051Z,9.10
2019-01-19T10:34:03.338Z,9.67
2019-01-19T10:36:32.807Z,9.17
2019-01-19T10:39:09.988Z,8.47
2019-01-19T10:41:41.601Z,8.63
2019-01-19T10:44:12.135Z,9.13
2019-01-19T10:46:41.769Z,8.43
2019-01-19T10:49:15.427Z,8.07
2019-01-19T10:51:50.682Z,6.03
2019-01-19T10:54:20.172Z,9.73
2019-01-19T10:56:59.463Z,8.70
2019-01-19T10:59:28.941Z,7.73
2019-01-19T11:01:58.352Z,7.00
2019-01-19T11:04:27.785Z,7.00
2019-01-19T11:06:57.240Z,6.03
2019-01-19T11:09:34.690Z,6.53
2019-01-19T11:12:04.331Z,7.67
2019-01-19T11:14:41.762Z,10.63
2019-01-19T11:17:11.255Z,6.80
2019-01-19T11:19:40.794Z,6.00
2019-01-19T11:22:16.340Z,6.40
2019-01-19T11:24:45.837Z,5.93
2019-01-19T11:27:17.782Z,5.77
2019-01-19T11:29:49.316Z,5.50
2019-01-19T11:32:18.712Z,4.63
2019-01-19T11:34:48.184Z,5.67
2019-01-19T11:37:18.673Z,5.20
2019-01-19T11:39:49.255Z,4.80
2019-01-19T11:42:19.752Z,6.47
2019-01-19T11:44:49.261Z,6.10
2019-01-19T11:47:20.881Z,5.80
2019-01-19T11:49:50.338Z,6.77
2019-01-19T11:52:19.796Z,5.47
2019-01-19T11:54:56.277Z,5.97
2019-01-19T11:57:25.789Z,4.27
2019-01-19T11:59:55.277Z,4.33
2019-01-19T12:02:27.977Z,4.23
2019-01-19T12:04:58.419Z,4.10
2019-01-19T12:07:33.652Z,3.90
2019-01-19T12:10:07.073Z,3.47
2019-01-19T12:12:38.535Z,5.73
2019-01-19T12:15:09.247Z,4.53
2019-01-19T12:17:39.977Z,4.63
2019-01-19T12:20:13.513Z,4.47
2019-01-19T12:22:42.986Z,5.53
2019-01-19T12:25:13.769Z,4.60
2019-01-19T12:27:44.246Z,4.57
2019-01-19T12:30:17.199Z,5.07
2019-01-19T12:32:46.845Z,3.97
2019-01-19T12:35:16.878Z,5.20
2019-01-19T12:37:47.452Z,5.20
2019-01-19T12:40:18.789Z,4.40
